Detailed Flight Report of Nuri Burak ERKAL ;
Number CXD079 
Departure Aerodrome LTBS 
Arrival Aerodrome LMML

Map generated by the Great Circle Mapper - copyright © Karl L. Swartz.

Pilot In Command CXD079 : Nuri Burak Erkal
Aircraft B773 / TC-NZL
Date Of Flight 2020-06-16
Departure Time 03:31 UTC
Arrival Time 05:36 UTC
Block Time 02:05
Distance 724 Nm.
Used Fuel 30,326 Lbs.
   
Detailed Flight Log [2020/06/16 03:32:00]
Flight IATA:C001
Pilot Number:079
Company ICAO:CXD
Aircraft Type:B773
Aircraft Registration:TC-NZL
Departing Airport: LTBS
Destination Airport: LMML
Alternate Airport:LICB
Online: VATSIM
Route:SOTIV UN136 RDS UM601 MIL UP32 MONUV UN45 ROTAS N45 BINKO M978 GZO
Flight Level:FL360
No pause
03:32 Zero fuel Weight: 480950 Lbs, Fuel Weight: 45529 Lbs
03:32 VATSIM:LTBS 151450Z 21008KT 9999 FEW030 SCT200 26/16 Q1010 NOSIG
03:32 VATSIM:LMML 151515Z 30020KT CAVOK 25/15 Q1015 NOSIG
03:44 Parking Brakes off
03:54 VR= 165 Knots
03:54 V2= 170 Knots
03:54 Take-off
03:54 Take off Weight: 525223 Lbs
03:54 Wind: 220º @ 007 Knots Heading: 195º
03:54 POS N36º 42´ 24´´ E028º 47´ 25´´
03:54 N11 86 N12 86
03:54 Flaps:5º at 171 Knots
03:54 Gear Up: 166 Knots
03:55 Flaps:1º at 182 Knots
03:55 Flaps:Up at 199 Knots
04:09 Wind:249º@053 Knots Heading: 275º Ground Sp
eed: 434 Knots Altitude 35147 ft
04:09 TOC
04:09 Fuel Weight: 35817 Lb
04:24 Wind:259º@051 Knots Heading: 275º Ground Speed: 436 Knots Altitude 37854 ft
04:39 Wind:277º@055 Knots Heading: 267º Ground Speed: 429 Knots Altitude 37933 ft
04:54 Wind:289º@062 Knots Heading: 268º Ground Speed: 426 Knots Altitude 35898 ft
05:09 Wind:283º@060 Knots Heading: 266º Ground Speed: 424 Knots Altitude 35935 ft
05:13 TOD
05:13 Fuel Weight: 20366 Lb
05:24 Wind:288º@039 Knots Heading: 269º Ground Speed: 349 Knots Altitude 23038 ft
05:39 Wind:324º@021 Knots Heading: 237º Ground Speed: 339 Knots Altitude 4078 ft
05:42 Flaps:1º at 184 Knots
05:42 Flaps:5º at 177 Knots
05:42 Flaps:15º at 174 Knots
05:44 Flaps:30º at 170 Knots
05:44 Gear Down: 169 Knots
05:44 Flaps:35º at 162 Knots
05:45 Flaps:Full at 151 Knots
05:48 TouchDown:Rate -46 ft/min Speed: 137 Knots
05:49 VATSIM:LMML 151
745Z 31021KT CAVOK 22/16 Q1015
05:49 Land
05:49 Wind:310º@022 Knots
05:49 Heading: 313º
05:49 Flight Duration: 01:55
05:49 Landing Weight: 496173 Lbs
05:49 POS N35º 50´ 46´´ E014º 29´ 29´´
05:49 Parking brakes on
05:49 Block to Block Duration: 02:05
05:49 Final Fuel: 15202 Lbls
05:49 Spent Fuel: 30326 Lbls
05:49 Flight Length: 724 NM
05:49 TOD Land Length: 175 NM

Text Link of Flight Log http://www.candanair.net/acars/logs/CXD07920200616033200.txt
   

[ Back ]